Time;durP1;ratioP1;P1;durP2;ratioP2;P2;SDS_P1;SDS_P2;PMS_P1;PMS_P2;Temp;Humidity;BMP_temperature;BMP_pressure;BME280_temperature;BME280_humidity;BME280_pressure;Samples;Min_cycle;Max_cycle;Signal;HPM_P1;HPM_P2
2023/07/25 00:01:40;;;;;;;6.15;4.30;;;15.20;99.90;;;;;;5051389;28;20155;-91
2023/07/25 00:04:27;;;;;;;6.10;4.88;;;15.20;99.90;;;;;;5056337;28;20128;-90
2023/07/25 00:07:17;;;;;;;6.95;4.75;;;15.10;99.90;;;;;;5068398;28;20048;-89
2023/07/25 00:10:10;;;;;;;8.65;5.05;;;15.10;99.90;;;;;;5049750;28;20190;-90
2023/07/25 00:12:57;;;;;;;5.68;4.35;;;15.00;99.90;;;;;;5054838;28;20048;-89
2023/07/25 00:15:45;;;;;;;8.73;5.07;;;15.10;99.90;;;;;;5051716;28;20033;-90
2023/07/25 00:18:32;;;;;;;5.78;4.40;;;15.10;99.90;;;;;;5051279;28;20584;-92
2023/07/25 00:21:19;;;;;;;6.38;4.43;;;15.20;99.90;;;;;;5057010;28;20041;-89
2023/07/25 00:24:07;;;;;;;6.07;4.47;;;15.20;99.90;;;;;;5046780;28;20045;-92
2023/07/25 00:26:54;;;;;;;8.13;4.47;;;15.20;99.90;;;;;;5054462;28;20446;-89
2023/07/25 00:29:47;;;;;;;7.80;4.55;;;15.20;99.90;;;;;;5059084;28;20332;-90
2023/07/25 00:32:34;;;;;;;5.80;4.45;;;15.20;99.90;;;;;;5052815;28;20052;-89
2023/07/25 00:35:21;;;;;;;7.88;4.60;;;15.20;99.90;;;;;;5055046;28;20132;-88
2023/07/25 00:38:11;;;;;;;5.72;4.28;;;15.20;99.90;;;;;;5059101;28;20055;-90
2023/07/25 00:40:58;;;;;;;7.05;4.85;;;15.20;99.90;;;;;;5059020;28;20049;-88
2023/07/25 00:43:48;;;;;;;10.60;5.07;;;15.20;99.90;;;;;;5056728;28;20052;-90
2023/07/25 00:46:35;;;;;;;7.35;4.75;;;15.10;99.90;;;;;;5074486;28;20052;-89
2023/07/25 00:49:25;;;;;;;6.70;5.10;;;15.10;99.90;;;;;;5051904;28;20076;-91
2023/07/25 00:52:13;;;;;;;9.43;5.15;;;15.00;99.90;;;;;;5051491;28;20109;-88
2023/07/25 00:55:03;;;;;;;7.00;4.68;;;15.00;99.90;;;;;;5053933;28;20055;-90
2023/07/25 00:57:50;;;;;;;10.02;5.30;;;15.00;99.90;;;;;;5067493;28;20041;-91
2023/07/25 01:00:43;;;;;;;6.82;5.05;;;14.90;99.90;;;;;;5059485;28;20048;-89
2023/07/25 01:03:33;;;;;;;8.35;5.28;;;14.90;99.90;;;;;;5062571;28;20045;-90
2023/07/25 01:06:21;;;;;;;7.25;5.03;;;14.80;99.90;;;;;;5054225;28;20057;-89
2023/07/25 01:09:08;;;;;;;7.68;5.70;;;14.70;99.90;;;;;;5055009;28;20048;-87
2023/07/25 01:11:55;;;;;;;8.95;5.30;;;14.60;99.90;;;;;;5054809;28;20461;-89
2023/07/25 01:14:43;;;;;;;7.03;5.55;;;14.60;99.90;;;;;;5052354;28;20045;-91
2023/07/25 01:17:31;;;;;;;7.88;5.13;;;14.50;99.90;;;;;;5055335;28;20041;-89
2023/07/25 01:20:18;;;;;;;8.73;5.70;;;14.30;99.90;;;;;;5052851;28;20053;-87
2023/07/25 01:23:06;;;;;;;11.75;6.00;;;14.30;99.90;;;;;;5056209;28;20041;-91
2023/07/25 01:25:54;;;;;;;9.02;5.38;;;14.10;99.90;;;;;;5054898;28;20507;-89
2023/07/25 01:28:41;;;;;;;7.88;6.38;;;14.10;99.90;;;;;;5048878;28;20430;-90
2023/07/25 01:31:28;;;;;;;10.15;5.82;;;14.10;99.90;;;;;;5059174;28;20045;-92
2023/07/25 01:34:16;;;;;;;10.25;6.47;;;14.10;99.90;;;;;;5052005;28;20045;-89
2023/07/25 01:37:05;;;;;;;6.65;5.30;;;14.10;99.90;;;;;;5067231;28;20167;-92
2023/07/25 01:39:52;;;;;;;7.78;5.90;;;14.10;99.90;;;;;;5055300;28;20041;-92
2023/07/25 01:42:39;;;;;;;10.88;6.15;;;14.10;99.90;;;;;;5055591;28;20064;-90
2023/07/25 01:45:26;;;;;;;9.63;6.10;;;14.10;99.90;;;;;;5052726;28;20060;-93
2023/07/25 01:48:16;;;;;;;6.97;5.85;;;14.10;99.90;;;;;;5069887;28;20044;-89
2023/07/25 01:51:04;;;;;;;8.32;5.63;;;14.10;99.90;;;;;;5066669;28;20060;-91
2023/07/25 01:53:51;;;;;;;8.60;6.13;;;14.10;99.90;;;;;;5051114;28;20052;-92
2023/07/25 01:56:38;;;;;;;9.80;6.50;;;14.10;99.90;;;;;;5054160;28;20048;-90
2023/07/25 01:59:27;;;;;;;9.52;6.03;;;14.10;99.90;;;;;;5053622;28;20072;-90
2023/07/25 02:02:14;;;;;;;8.27;5.63;;;14.00;99.90;;;;;;5059129;28;20060;-90
2023/07/25 02:05:01;;;;;;;9.05;6.35;;;14.00;99.90;;;;;;5053021;28;20072;-90
2023/07/25 02:07:51;;;;;;;8.60;5.70;;;14.00;99.90;;;;;;5056418;28;20049;-90
2023/07/25 02:10:38;;;;;;;10.93;6.18;;;14.00;99.90;;;;;;5054016;28;20134;-91
2023/07/25 02:13:26;;;;;;;10.07;5.70;;;14.00;99.90;;;;;;5053863;28;20056;-91
2023/07/25 02:16:13;;;;;;;9.50;5.95;;;13.90;99.90;;;;;;5038220;28;20041;-92
2023/07/25 02:19:00;;;;;;;8.95;5.88;;;14.00;99.90;;;;;;5052642;28;20454;-92
2023/07/25 02:21:48;;;;;;;6.30;5.32;;;14.00;99.90;;;;;;5039197;28;20037;-90
2023/07/25 02:24:35;;;;;;;7.13;5.50;;;13.90;99.90;;;;;;5048890;28;20053;-90
2023/07/25 02:27:23;;;;;;;8.88;5.47;;;13.90;99.90;;;;;;5075977;28;20045;-84
2023/07/25 02:30:11;;;;;;;6.38;5.18;;;13.70;99.90;;;;;;5086578;28;20041;-88
2023/07/25 02:32:58;;;;;;;9.80;5.55;;;13.60;99.90;;;;;;5061349;28;20041;-89
2023/07/25 02:35:45;;;;;;;6.00;5.40;;;13.60;99.90;;;;;;5052738;28;20112;-89
2023/07/25 02:38:33;;;;;;;11.43;5.97;;;13.70;99.90;;;;;;5045792;28;20120;-90
2023/07/25 02:41:21;;;;;;;7.95;5.70;;;13.70;99.90;;;;;;5049196;28;20377;-90
2023/07/25 02:44:08;;;;;;;8.57;5.47;;;13.70;99.90;;;;;;5064114;28;20049;-91
2023/07/25 02:46:55;;;;;;;10.52;6.15;;;13.70;99.90;;;;;;5059255;28;20045;-90
2023/07/25 02:49:48;;;;;;;10.88;6.18;;;13.80;99.90;;;;;;5057753;28;20045;-90
2023/07/25 02:52:35;;;;;;;9.50;6.28;;;13.80;99.90;;;;;;5064798;28;20060;-90
2023/07/25 02:55:23;;;;;;;7.78;5.55;;;13.80;99.90;;;;;;5062096;28;20049;-91
2023/07/25 02:58:13;;;;;;;8.70;6.20;;;13.80;99.90;;;;;;5056892;28;20120;-92
2023/07/25 03:01:01;;;;;;;13.55;5.68;;;13.70;99.90;;;;;;5061453;28;20041;-90
2023/07/25 03:03:48;;;;;;;9.57;5.72;;;13.70;99.90;;;;;;5052319;28;20126;-90
2023/07/25 03:06:38;;;;;;;8.68;5.57;;;13.70;99.90;;;;;;5051038;28;20064;-91
2023/07/25 03:09:26;;;;;;;10.18;6.18;;;13.70;99.90;;;;;;5058820;28;20041;-91
2023/07/25 03:12:14;;;;;;;6.70;5.53;;;13.70;99.90;;;;;;5051381;28;20060;-87
2023/07/25 03:15:05;;;;;;;8.15;5.85;;;13.80;99.90;;;;;;5049721;28;20056;-92
2023/07/25 03:17:54;;;;;;;9.48;6.10;;;13.90;99.90;;;;;;5053764;28;20048;-91
2023/07/25 03:20:46;;;;;;;10.15;6.53;;;14.00;99.90;;;;;;5053060;28;20095;-89
2023/07/25 03:23:35;;;;;;;9.35;5.88;;;14.00;99.90;;;;;;5051048;28;20344;-90
2023/07/25 03:26:22;;;;;;;9.68;6.85;;;13.90;99.90;;;;;;5049862;28;20060;-92
2023/07/25 03:29:09;;;;;;;9.63;6.82;;;14.00;99.90;;;;;;5058907;28;20041;-93
2023/07/25 03:31:56;;;;;;;12.48;7.65;;;13.90;99.90;;;;;;5066867;28;20327;-92
2023/07/25 03:34:44;;;;;;;9.82;7.78;;;14.10;99.90;;;;;;5064319;28;20323;-89
2023/07/25 03:37:35;;;;;;;9.32;7.22;;;14.30;99.90;;;;;;5056538;28;20049;-90
2023/07/25 03:40:24;;;;;;;13.50;7.25;;;14.40;99.90;;;;;;5056696;28;20045;-90
2023/07/25 03:43:15;;;;;;;11.57;7.47;;;14.50;99.90;;;;;;5052448;28;20387;-91
2023/07/25 03:46:03;;;;;;;11.60;6.97;;;14.50;99.90;;;;;;5043897;28;20049;-91
2023/07/25 03:48:50;;;;;;;9.95;6.82;;;14.60;99.90;;;;;;5056037;28;20476;-90
2023/07/25 03:51:39;;;;;;;12.40;6.25;;;14.60;99.90;;;;;;5053849;28;20064;-91
2023/07/25 03:54:27;;;;;;;9.23;6.68;;;14.60;99.90;;;;;;5048730;28;20056;-92
2023/07/25 03:57:17;;;;;;;11.27;6.45;;;14.50;99.90;;;;;;5056170;28;20045;-92
2023/07/25 04:00:05;;;;;;;8.32;5.47;;;14.50;99.90;;;;;;5059122;28;20037;-89
2023/07/25 04:02:52;;;;;;;8.10;5.55;;;14.50;99.90;;;;;;5069289;28;20045;-90
2023/07/25 04:05:55;;;;;;;;;;;14.40;99.90;;;;;;5055613;28;20041;-87
2023/07/25 04:08:42;;;;;;;9.23;5.47;;;14.40;99.90;;;;;;5059962;28;19940;-93
2023/07/25 04:11:30;;;;;;;9.57;6.32;;;14.40;99.90;;;;;;5056118;28;20072;-88
2023/07/25 04:14:18;;;;;;;8.15;5.85;;;14.40;99.90;;;;;;5057579;28;20055;-93
2023/07/25 04:17:10;;;;;;;9.77;6.20;;;14.40;99.90;;;;;;5053688;28;20094;-87
2023/07/25 04:19:59;;;;;;;6.93;5.82;;;14.40;99.90;;;;;;5068673;28;20041;-86
2023/07/25 04:22:46;;;;;;;16.38;6.45;;;14.40;99.90;;;;;;5052420;28;20555;-85
2023/07/25 04:25:34;;;;;;;8.25;6.38;;;14.40;99.90;;;;;;5050752;28;20052;-89
2023/07/25 04:28:23;;;;;;;10.48;6.78;;;14.30;99.90;;;;;;5053885;28;20200;-85
2023/07/25 04:31:17;;;;;;;10.68;6.30;;;14.30;99.90;;;;;;5057940;28;20051;-84
2023/07/25 04:34:05;;;;;;;12.25;7.20;;;14.40;99.90;;;;;;5053188;28;20044;-84
2023/07/25 04:36:52;;;;;;;12.73;6.63;;;14.40;99.90;;;;;;5055671;28;20316;-87
2023/07/25 04:39:40;;;;;;;14.43;7.03;;;14.40;99.90;;;;;;5052380;28;20041;-90
2023/07/25 04:42:27;;;;;;;10.18;6.93;;;14.40;99.90;;;;;;5056716;28;20384;-88
2023/07/25 04:45:14;;;;;;;10.95;6.43;;;14.40;99.90;;;;;;5063787;28;20115;-89
2023/07/25 04:48:04;;;;;;;11.80;6.60;;;14.40;99.90;;;;;;5067081;28;20105;-85
2023/07/25 04:50:51;;;;;;;9.68;6.22;;;14.50;99.90;;;;;;5065478;28;20120;-86
2023/07/25 04:53:38;;;;;;;10.27;6.60;;;14.50;99.90;;;;;;5061597;28;20052;-86
2023/07/25 04:56:26;;;;;;;8.88;6.05;;;14.60;99.90;;;;;;5054933;28;20045;-86
2023/07/25 04:59:13;;;;;;;11.02;6.82;;;14.60;99.90;;;;;;5047462;28;20045;-89
2023/07/25 05:02:00;;;;;;;10.13;7.28;;;14.60;99.90;;;;;;5057311;28;20040;-90
2023/07/25 05:04:50;;;;;;;11.32;7.05;;;14.60;99.90;;;;;;5053898;28;20045;-88
2023/07/25 05:07:39;;;;;;;12.32;7.60;;;14.50;99.90;;;;;;5054802;28;20110;-89
2023/07/25 05:10:26;;;;;;;13.35;7.60;;;14.30;99.90;;;;;;5049842;28;20049;-88
2023/07/25 05:13:13;;;;;;;14.07;7.78;;;14.20;99.90;;;;;;5054930;28;20049;-87
2023/07/25 05:16:03;;;;;;;16.08;8.90;;;14.30;99.90;;;;;;5050527;28;20055;-86
2023/07/25 05:18:50;;;;;;;10.98;7.55;;;14.30;99.90;;;;;;5052345;28;20052;-91
2023/07/25 05:21:44;;;;;;;13.77;7.85;;;14.40;99.90;;;;;;5071271;28;20037;-91
2023/07/25 05:25:15;;;;;;;;;;;;;;;;;;;;;
2023/07/25 05:28:05;;;;;;;13.00;8.40;;;14.50;99.90;;;;;;5008503;28;20455;-88
2023/07/25 05:30:54;;;;;;;15.20;8.73;;;14.50;99.90;;;;;;5008840;28;20136;-91
2023/07/25 05:33:43;;;;;;;13.48;7.72;;;14.60;99.90;;;;;;5047167;28;20612;-90
2023/07/25 05:36:35;;;;;;;13.02;8.05;;;14.60;99.90;;;;;;5052946;28;20060;-92
2023/07/25 05:39:24;;;;;;;17.90;8.75;;;14.50;99.90;;;;;;5051365;28;20453;-89
2023/07/25 05:42:13;;;;;;;11.38;8.02;;;14.50;99.90;;;;;;5058106;28;20067;-92
2023/07/25 05:45:00;;;;;;;9.43;7.30;;;14.60;99.90;;;;;;5051028;28;20400;-90
2023/07/25 05:47:49;;;;;;;11.18;8.25;;;14.60;99.90;;;;;;5061055;28;20454;-91
2023/07/25 05:50:36;;;;;;;14.15;7.93;;;14.70;99.90;;;;;;5045512;28;20041;-89
2023/07/25 05:53:23;;;;;;;10.82;7.78;;;14.70;99.90;;;;;;5059495;28;20075;-91
2023/07/25 05:56:11;;;;;;;14.90;9.00;;;14.70;99.90;;;;;;5053198;28;20052;-91
2023/07/25 05:59:14;;;;;;;13.57;7.90;;;14.90;99.90;;;;;;5053972;28;20036;-89
2023/07/25 06:02:04;;;;;;;;;;;14.90;99.90;;;;;;5055168;28;20104;-89
2023/07/25 06:04:51;;;;;;;10.63;7.50;;;15.00;99.90;;;;;;5061299;28;20045;-89
2023/07/25 06:07:42;;;;;;;19.00;8.35;;;15.10;99.90;;;;;;5053147;28;20080;-87
2023/07/25 06:10:30;;;;;;;10.93;7.40;;;15.00;99.90;;;;;;5051210;28;20091;-88
2023/07/25 06:13:18;;;;;;;14.05;7.43;;;15.10;99.90;;;;;;5049176;28;20098;-89
2023/07/25 06:16:05;;;;;;;10.98;7.82;;;15.20;99.90;;;;;;5047810;28;20351;-89
2023/07/25 06:18:52;;;;;;;14.27;6.78;;;15.30;99.90;;;;;;5051661;28;20052;-89
2023/07/25 06:21:40;;;;;;;7.57;6.40;;;15.40;99.90;;;;;;5051255;28;20056;-87
2023/07/25 06:24:27;;;;;;;7.97;6.72;;;15.40;99.90;;;;;;5050863;28;20045;-87
2023/07/25 06:27:14;;;;;;;10.73;6.72;;;15.30;99.90;;;;;;5047330;28;20150;-87
2023/07/25 06:30:02;;;;;;;18.45;7.10;;;15.20;99.90;;;;;;5048458;28;20044;-88
2023/07/25 06:32:50;;;;;;;12.27;6.78;;;15.10;99.90;;;;;;5052005;28;20049;-86
2023/07/25 06:35:41;;;;;;;10.20;6.22;;;15.20;99.90;;;;;;5047282;28;20090;-89
2023/07/25 06:38:28;;;;;;;13.98;7.05;;;15.30;99.90;;;;;;5051310;28;20045;-89
2023/07/25 06:41:18;;;;;;;11.95;6.63;;;15.30;99.90;;;;;;5053463;28;20128;-87
2023/07/25 06:44:05;;;;;;;12.45;6.93;;;15.30;99.90;;;;;;5053273;28;20174;-88
2023/07/25 06:46:52;;;;;;;14.75;6.43;;;15.30;99.90;;;;;;5039083;28;20049;-87
2023/07/25 06:49:45;;;;;;;7.85;5.88;;;15.30;99.90;;;;;;5051542;28;20053;-87
2023/07/25 06:52:34;;;;;;;8.70;5.75;;;15.30;99.90;;;;;;5054050;28;20569;-88
2023/07/25 06:55:21;;;;;;;9.35;5.82;;;15.40;99.90;;;;;;5054971;28;20386;-89
2023/07/25 06:58:11;;;;;;;8.50;5.75;;;15.50;99.90;;;;;;5056022;28;20072;-88
2023/07/25 07:01:00;;;;;;;9.10;5.30;;;15.50;99.90;;;;;;5060097;28;20496;-88
2023/07/25 07:03:48;;;;;;;7.05;4.93;;;15.50;99.90;;;;;;5063369;28;20045;-84
2023/07/25 07:06:37;;;;;;;8.02;5.20;;;15.40;99.90;;;;;;5065017;28;20041;-89
2023/07/25 07:09:27;;;;;;;7.13;4.80;;;15.40;99.90;;;;;;5068517;28;20052;-85
2023/07/25 07:12:16;;;;;;;9.90;5.45;;;15.60;99.90;;;;;;5058585;28;20051;-88
2023/07/25 07:15:03;;;;;;;6.95;5.00;;;15.80;99.90;;;;;;5054104;28;20040;-87
2023/07/25 07:17:52;;;;;;;11.80;5.35;;;15.80;99.90;;;;;;5056603;28;20037;-88
2023/07/25 07:20:48;;;;;;;10.93;5.03;;;15.80;99.90;;;;;;5056691;28;20055;-88
2023/07/25 07:23:36;;;;;;;8.07;5.00;;;15.80;99.90;;;;;;5069101;28;20057;-88
2023/07/25 07:26:23;;;;;;;9.73;5.05;;;15.90;99.90;;;;;;5055093;28;20052;-87
2023/07/25 07:29:11;;;;;;;8.48;4.43;;;16.10;99.90;;;;;;5051040;28;20037;-89
2023/07/25 07:32:03;;;;;;;7.18;3.83;;;16.20;99.90;;;;;;5053416;28;20059;-87
2023/07/25 07:34:50;;;;;;;7.47;4.47;;;16.30;99.90;;;;;;5052817;28;20037;-86
2023/07/25 07:37:37;;;;;;;6.43;3.88;;;16.60;99.90;;;;;;5054570;28;20122;-86
2023/07/25 07:40:25;;;;;;;7.68;4.07;;;17.00;99.90;;;;;;5064861;28;20045;-87
2023/07/25 07:43:16;;;;;;;6.00;3.75;;;17.50;99.90;;;;;;5052710;28;20048;-88
2023/07/25 07:46:04;;;;;;;6.30;3.53;;;17.80;99.90;;;;;;5054556;28;20485;-87
2023/07/25 07:48:58;;;;;;;6.30;3.10;;;18.00;99.90;;;;;;5050293;28;20044;-90
2023/07/25 07:51:49;;;;;;;6.35;3.10;;;18.00;62.00;;;;;;5054067;28;20041;-88
2023/07/25 07:55:01;;;;;;;5.35;2.88;;;17.90;99.90;;;;;;5054099;28;20425;-88
2023/07/25 07:57:48;;;;;;;3.53;3.10;;;17.60;99.90;;;;;;5054122;28;20055;-88
2023/07/25 08:00:38;;;;;;;4.03;2.78;;;17.60;70.90;;;;;;5067547;28;20056;-88
2023/07/25 08:03:26;;;;;;;4.25;2.60;;;18.10;1.00;;;;;;5067504;28;20033;-88
2023/07/25 08:06:13;;;;;;;4.35;2.53;;;18.30;99.90;;;;;;5053776;28;20346;-86
2023/07/25 08:09:04;;;;;;;6.35;2.70;;;18.30;99.90;;;;;;5053025;28;20056;-87
2023/07/25 08:11:58;;;;;;;4.05;2.47;;;18.60;99.90;;;;;;5066281;28;20048;-90
2023/07/25 08:14:46;;;;;;;6.50;2.83;;;18.50;1.00;;;;;;5052609;28;20468;-88
2023/07/25 08:17:34;;;;;;;5.13;3.10;;;18.30;99.90;;;;;;5050247;28;20041;-89
2023/07/25 08:20:23;;;;;;;5.07;3.38;;;18.20;99.90;;;;;;5050699;28;20048;-87
2023/07/25 08:23:15;;;;;;;4.03;3.35;;;18.30;99.90;;;;;;5049963;28;20049;-90
2023/07/25 08:26:06;;;;;;;4.88;3.22;;;18.00;99.90;;;;;;5051382;28;20170;-87
2023/07/25 08:29:03;;;;;;;6.05;3.25;;;17.90;1.00;;;;;;5055063;28;20060;-91
2023/07/25 08:31:54;;;;;;;7.93;2.70;;;17.80;1.00;;;;;;5048600;28;20106;-88
2023/07/25 08:34:43;;;;;;;2.92;2.35;;;17.80;1.00;;;;;;5051314;28;20139;-86
2023/07/25 08:37:40;;;;;;;5.47;2.15;;;17.90;99.90;;;;;;5053980;28;20098;-88
2023/07/25 08:40:28;;;;;;;2.78;2.03;;;17.70;99.90;;;;;;5063435;28;20045;-88
2023/07/25 08:43:18;;;;;;;5.13;2.20;;;17.50;1.00;;;;;;5066129;28;20060;-89
2023/07/25 08:46:10;;;;;;;1.90;1.60;;;17.20;99.90;;;;;;5050918;28;20087;-90
2023/07/25 08:49:03;;;;;;;4.30;1.80;;;16.80;1.00;;;;;;5063966;28;20056;-89
2023/07/25 08:51:54;;;;;;;;;;;16.50;99.90;;;;;;5052897;28;20059;-90
2023/07/25 08:54:43;;;;;;;5.18;2.35;;;16.10;99.90;;;;;;5066200;28;19931;-91
2023/07/25 08:57:34;;;;;;;5.20;2.40;;;15.80;99.90;;;;;;5050150;28;20503;-88
2023/07/25 09:00:22;;;;;;;4.75;2.47;;;15.60;99.90;;;;;;5065570;28;20053;-89
2023/07/25 09:03:14;;;;;;;5.70;2.42;;;15.40;1.00;;;;;;5051366;28;20198;-89
2023/07/25 09:06:06;;;;;;;6.40;2.90;;;15.50;97.60;;;;;;5048026;28;20109;-85
2023/07/25 09:08:56;;;;;;;3.83;2.15;;;15.60;99.90;;;;;;5053245;28;20098;-88
2023/07/25 09:11:46;;;;;;;5.97;2.30;;;15.70;99.90;;;;;;5049971;28;20129;-87
2023/07/25 09:14:41;;;;;;;6.05;2.38;;;15.80;99.90;;;;;;5051779;28;20036;-89
2023/07/25 09:17:29;;;;;;;3.67;2.00;;;16.00;99.90;;;;;;5063023;28;20056;-87
2023/07/25 09:20:19;;;;;;;2.22;1.90;;;16.30;92.90;;;;;;5049868;28;20041;-89
2023/07/25 09:23:06;;;;;;;3.90;2.15;;;16.90;1.00;;;;;;5062791;28;20438;-87
2023/07/25 09:26:54;;;;;;;4.55;1.73;;;17.30;1.00;;;;;;5049173;28;20045;-85
2023/07/25 09:29:57;;;;;;;4.13;2.05;;;17.40;99.90;;;;;;5030473;28;20113;-89
2023/07/25 09:32:47;;;;;;;2.80;1.40;;;17.60;99.90;;;;;;5067085;28;20045;-91
2023/07/25 09:35:34;;;;;;;2.10;1.50;;;18.50;99.90;;;;;;5050183;28;20037;-85
2023/07/25 09:38:22;;;;;;;5.28;1.88;;;19.00;99.90;;;;;;5053735;28;20053;-90
2023/07/25 09:41:10;;;;;;;3.38;1.60;;;19.10;99.90;;;;;;5049764;28;20141;-87
2023/07/25 09:44:02;;;;;;;5.20;1.30;;;19.30;1.00;;;;;;5051133;28;20052;-87
2023/07/25 09:46:50;;;;;;;;;;;19.80;99.90;;;;;;5049113;28;20049;-88
2023/07/25 09:49:37;;;;;;;2.03;1.42;;;19.80;1.00;;;;;;5049407;28;19963;-90
2023/07/25 09:52:25;;;;;;;3.28;1.65;;;20.10;1.00;;;;;;5051282;28;20045;-89
2023/07/25 09:55:15;;;;;;;2.00;1.50;;;19.90;99.90;;;;;;5052128;28;20352;-87
2023/07/25 09:58:04;;;;;;;3.10;1.73;;;19.50;99.90;;;;;;5051900;28;20056;-89
2023/07/25 10:00:51;;;;;;;2.38;1.38;;;19.30;99.90;;;;;;5050307;28;20040;-91
2023/07/25 10:03:43;;;;;;;3.55;1.90;;;19.60;99.90;;;;;;5049234;28;20489;-87
2023/07/25 10:06:33;;;;;;;2.35;1.20;;;20.20;99.90;;;;;;5050295;28;20064;-86
2023/07/25 10:09:21;;;;;;;2.58;1.40;;;20.60;99.90;;;;;;5048507;28;20044;-87
2023/07/25 10:12:09;;;;;;;1.65;1.38;;;20.40;2.70;;;;;;5052483;28;20466;-87
2023/07/25 10:14:56;;;;;;;4.88;1.48;;;20.50;1.00;;;;;;5051291;28;20079;-87
2023/07/25 10:17:44;;;;;;;2.03;1.40;;;20.80;1.00;;;;;;5052582;28;20051;-87
2023/07/25 10:20:33;;;;;;;2.35;1.38;;;21.30;1.00;;;;;;5051398;28;20032;-88
2023/07/25 10:23:30;;;;;;;3.65;1.52;;;21.10;1.00;;;;;;5044065;28;20041;-88
2023/07/25 10:26:20;;;;;;;3.67;1.65;;;20.30;1.00;;;;;;5061456;28;20060;-88
2023/07/25 10:29:36;;;;;;;4.60;1.83;;;20.00;1.00;;;;;;5048340;28;20474;-88
2023/07/25 10:32:46;;;;;;;3.80;1.77;;;19.60;1.00;;;;;;5064775;28;20053;-90
2023/07/25 10:35:53;;;;;;;4.80;1.90;;;19.10;1.00;;;;;;5050811;28;20047;-90
2023/07/25 10:38:42;;;;;;;4.95;2.58;;;18.50;99.90;;;;;;5052793;28;20056;-87
2023/07/25 10:41:34;;;;;;;5.70;2.22;;;17.90;1.00;;;;;;5053078;28;20052;-85
2023/07/25 10:44:37;;;;;;;3.70;2.00;;;17.40;99.90;;;;;;5055056;28;20049;-85
2023/07/25 10:47:45;;;;;;;;;;;16.80;1.00;;;;;;5061354;28;20045;-88
2023/07/25 10:50:45;;;;;;;2.65;1.60;;;16.60;1.00;;;;;;5054913;28;19955;-87
2023/07/25 10:53:33;;;;;;;4.13;1.88;;;16.40;85.30;;;;;;5053252;28;20112;-87
2023/07/25 10:56:20;;;;;;;3.05;2.05;;;16.40;99.90;;;;;;5050393;28;20045;-88
2023/07/25 10:59:12;;;;;;;3.67;1.73;;;16.60;99.90;;;;;;5053509;28;20462;-86
2023/07/25 11:01:59;;;;;;;4.63;2.10;;;16.90;59.10;;;;;;5054167;28;20179;-86
2023/07/25 11:05:11;;;;;;;3.45;2.10;;;17.30;1.00;;;;;;5055706;28;20178;-85
2023/07/25 11:07:59;;;;;;;3.40;1.90;;;17.90;1.00;;;;;;5053710;28;20609;-87
2023/07/25 11:10:52;;;;;;;4.72;1.85;;;19.20;1.00;;;;;;5067317;28;20048;-86
2023/07/25 11:13:43;;;;;;;5.65;2.05;;;20.30;1.00;;;;;;5050616;28;20136;-86
2023/07/25 11:16:37;;;;;;;3.25;1.90;;;21.20;99.90;;;;;;5052713;28;20048;-86
2023/07/25 11:19:26;;;;;;;2.22;1.60;;;22.80;99.90;;;;;;5052815;28;20107;-86
2023/07/25 11:22:13;;;;;;;2.78;1.50;;;22.30;1.00;;;;;;5054450;28;20191;-86
2023/07/25 11:25:06;;;;;;;2.75;1.45;;;20.90;1.00;;;;;;5068439;28;20159;-86
2023/07/25 11:27:53;;;;;;;1.77;1.40;;;20.20;1.00;;;;;;5066499;28;20052;-90
2023/07/25 11:30:43;;;;;;;3.67;1.30;;;19.80;1.00;;;;;;5067179;28;20136;-88
2023/07/25 11:34:11;;;;;;;2.58;1.00;;;20.50;1.00;;;;;;5066698;28;20470;-86
2023/07/25 11:36:58;;;;;;;3.17;1.30;;;21.10;99.90;;;;;;5051652;28;20049;-85
2023/07/25 11:39:45;;;;;;;2.55;1.15;;;20.80;99.90;;;;;;5066360;28;20603;-86
2023/07/25 11:42:39;;;;;;;1.98;1.08;;;20.40;99.90;;;;;;5053225;28;20049;-87
2023/07/25 11:45:36;;;;;;;1.50;1.20;;;20.10;99.90;;;;;;5055334;28;20048;-87
2023/07/25 11:48:27;;;;;;;1.75;1.27;;;20.20;99.90;;;;;;5049547;28;20476;-90
2023/07/25 11:51:24;;;;;;;4.65;1.38;;;21.60;99.90;;;;;;5053298;28;20048;-89
2023/07/25 11:54:16;;;;;;;3.58;1.02;;;22.70;99.90;;;;;;5053175;28;20037;-87
2023/07/25 11:57:11;;;;;;;2.42;1.00;;;23.40;99.90;;;;;;5066404;28;20112;-86
2023/07/25 11:59:59;;;;;;;3.17;1.08;;;21.80;99.90;;;;;;5055530;28;20045;-92
2023/07/25 12:02:47;;;;;;;1.10;0.85;;;22.30;99.90;;;;;;5051179;28;20370;-89
2023/07/25 12:05:35;;;;;;;1.52;0.82;;;22.40;99.90;;;;;;5053059;28;20124;-89
2023/07/25 12:08:37;;;;;;;1.17;0.88;;;22.70;99.90;;;;;;5037881;28;22022;-88
2023/07/25 12:11:26;;;;;;;0.93;0.90;;;22.40;99.90;;;;;;5069246;28;20056;-87
2023/07/25 12:14:14;;;;;;;0.93;0.85;;;22.70;99.90;;;;;;5051149;28;20134;-88
2023/07/25 12:17:04;;;;;;;1.55;0.98;;;22.80;99.90;;;;;;5053625;28;20045;-89
2023/07/25 12:19:53;;;;;;;1.08;0.43;;;23.80;99.90;;;;;;5053726;28;20221;-88
2023/07/25 12:22:41;;;;;;;0.50;0.40;;;25.40;99.90;;;;;;5056803;28;20120;-87
2023/07/25 12:25:30;;;;;;;2.95;0.50;;;25.60;93.60;;;;;;5064322;28;20331;-88
2023/07/25 12:28:18;;;;;;;1.05;0.47;;;25.10;86.40;;;;;;5055155;28;20070;-86
2023/07/25 12:31:05;;;;;;;2.40;0.40;;;24.70;80.50;;;;;;5068128;28;20766;-86
2023/07/25 12:33:55;;;;;;;0.70;0.60;;;25.40;75.40;;;;;;5051424;28;20147;-84
2023/07/25 12:36:42;;;;;;;3.25;0.45;;;25.10;56.80;;;;;;5062742;28;20067;-85
2023/07/25 12:39:30;;;;;;;2.08;0.50;;;23.80;53.10;;;;;;5064083;28;20041;-87
2023/07/25 12:42:17;;;;;;;2.22;0.65;;;22.70;53.60;;;;;;5053531;28;20052;-87
2023/07/25 12:45:05;;;;;;;2.05;0.68;;;22.60;66.20;;;;;;5068956;28;20059;-87
2023/07/25 12:47:57;;;;;;;;;;;23.80;59.90;;;;;;5053623;28;20049;-88
2023/07/25 12:50:44;;;;;;;1.58;0.68;;;24.80;46.60;;;;;;5050906;28;20021;-87
2023/07/25 12:53:32;;;;;;;1.23;0.70;;;25.90;34.30;;;;;;5048002;28;20424;-88
2023/07/25 12:56:19;;;;;;;1.20;0.60;;;25.80;25.10;;;;;;5053010;28;20044;-90
2023/07/25 12:59:07;;;;;;;0.85;0.57;;;26.10;17.20;;;;;;5050094;28;20045;-86
2023/07/25 13:01:55;;;;;;;0.68;0.60;;;25.30;7.40;;;;;;5050172;28;20037;-86
2023/07/25 13:04:45;;;;;;;0.85;0.60;;;24.10;7.00;;;;;;5063893;28;20068;-86
2023/07/25 13:07:34;;;;;;;1.25;0.70;;;22.40;11.20;;;;;;5057107;28;20051;-87
2023/07/25 13:10:22;;;;;;;1.60;0.73;;;21.30;26.40;;;;;;5050071;28;20041;-87
2023/07/25 13:13:14;;;;;;;1.48;0.70;;;19.90;59.10;;;;;;5055889;28;20358;-90
2023/07/25 13:16:03;;;;;;;2.42;0.70;;;18.90;99.90;;;;;;5068285;28;20063;-87
2023/07/25 13:18:51;;;;;;;1.30;0.85;;;18.30;99.90;;;;;;5062871;28;20134;-90
2023/07/25 13:21:41;;;;;;;1.10;0.80;;;18.00;99.90;;;;;;5060274;28;20033;-87
2023/07/25 13:24:30;;;;;;;1.60;1.17;;;17.60;99.90;;;;;;5073996;28;20045;-86
2023/07/25 13:27:18;;;;;;;0.90;0.82;;;17.20;99.90;;;;;;5069362;28;20036;-87
2023/07/25 13:30:06;;;;;;;1.27;1.00;;;16.90;99.90;;;;;;5053949;28;20044;-86
2023/07/25 13:32:54;;;;;;;1.20;0.90;;;16.90;99.90;;;;;;5060778;28;20087;-84
2023/07/25 13:35:41;;;;;;;2.05;0.95;;;16.90;99.90;;;;;;5049788;28;20045;-83
2023/07/25 13:38:29;;;;;;;2.13;1.08;;;16.90;99.90;;;;;;5051001;28;20051;-84
2023/07/25 13:41:16;;;;;;;0.80;0.80;;;17.10;99.90;;;;;;5062968;28;20128;-85
2023/07/25 13:44:04;;;;;;;1.25;1.00;;;17.10;99.90;;;;;;5049232;28;20450;-83
2023/07/25 13:46:51;;;;;;;0.93;0.77;;;17.10;99.90;;;;;;5051680;28;20041;-83
2023/07/25 13:49:39;;;;;;;1.00;0.90;;;16.90;99.90;;;;;;5053614;28;20619;-86
2023/07/25 13:52:27;;;;;;;5.28;0.70;;;16.90;99.90;;;;;;5053533;28;20735;-82
2023/07/25 13:55:14;;;;;;;1.50;0.88;;;16.70;99.90;;;;;;5051043;28;20098;-85
2023/07/25 13:58:01;;;;;;;1.58;0.93;;;16.60;1.00;;;;;;5068433;28;20056;-87
2023/07/25 14:00:56;;;;;;;1.33;0.88;;;16.50;1.00;;;;;;5049730;28;20074;-87
2023/07/25 14:03:46;;;;;;;1.30;1.02;;;16.20;99.90;;;;;;5055066;28;20056;-88
2023/07/25 14:06:35;;;;;;;2.58;1.10;;;16.10;1.00;;;;;;5052871;28;20037;-87
2023/07/25 14:09:23;;;;;;;2.58;1.20;;;15.90;99.90;;;;;;5059409;28;20053;-88
2023/07/25 14:12:14;;;;;;;1.45;0.98;;;15.90;99.90;;;;;;5054799;28;20358;-88
2023/07/25 14:18:28;;;;;;;1.92;1.23;;;16.10;1.00;;;;;;5052222;28;20044;-88
2023/07/25 14:21:16;;;;;;;2.15;1.40;;;16.40;99.90;;;;;;5062880;28;20138;-88
2023/07/25 14:24:05;;;;;;;1.27;0.90;;;16.70;99.90;;;;;;5049551;28;20123;-86
2023/07/25 14:26:54;;;;;;;2.28;1.20;;;17.20;99.90;;;;;;5050679;28;20094;-86
2023/07/25 14:29:44;;;;;;;1.70;0.90;;;18.10;1.00;;;;;;5052081;28;20810;-87
2023/07/25 14:32:32;;;;;;;1.17;0.70;;;19.80;1.00;;;;;;5049067;28;20492;-89
2023/07/25 14:35:23;;;;;;;0.70;0.60;;;21.60;99.90;;;;;;5049113;28;20045;-90
2023/07/25 14:38:16;;;;;;;2.72;0.60;;;22.80;1.00;;;;;;5048893;28;20048;-90
2023/07/25 14:41:04;;;;;;;1.70;0.63;;;23.50;99.90;;;;;;5050700;28;20119;-87
2023/07/25 14:43:53;;;;;;;2.05;0.60;;;24.20;99.90;;;;;;5048903;28;20049;-91
2023/07/25 14:50:32;;;;;;;1.38;0.60;;;23.90;99.90;;;;;;5058550;28;20079;-88
2023/07/25 14:53:20;;;;;;;2.33;0.70;;;22.50;99.90;;;;;;5048973;28;20056;-86